sensor_id;sensor_type;location;lat;lon;timestamp;pressure;altitude;pressure_sealevel;temperature;humidity
13241;BME280;6687;47.790;7.322;2023-07-29T05:25:02;98511.75;;;22.15;69.29
13241;BME280;6687;47.790;7.322;2023-07-29T05:27:29;98506.94;;;22.05;71.72
13241;BME280;6687;47.790;7.322;2023-07-29T05:29:56;98511.13;;;22.27;68.41
13241;BME280;6687;47.790;7.322;2023-07-29T05:32:22;98504.91;;;22.28;68.21
13241;BME280;6687;47.790;7.322;2023-07-29T05:34:49;98496.16;;;22.43;66.97
13241;BME280;6687;47.790;7.322;2023-07-29T05:37:16;98506.56;;;22.47;67.01
13241;BME280;6687;47.790;7.322;2023-07-29T05:39:42;98497.69;;;22.48;66.97
13241;BME280;6687;47.790;7.322;2023-07-29T05:42:10;98500.97;;;22.53;67.03
13241;BME280;6687;47.790;7.322;2023-07-29T05:44:37;98505.91;;;22.59;66.25
13241;BME280;6687;47.790;7.322;2023-07-29T05:47:04;98510.69;;;22.68;65.43
13241;BME280;6687;47.790;7.322;2023-07-29T05:49:31;98513.22;;;22.70;65.82
13241;BME280;6687;47.790;7.322;2023-07-29T05:51:58;98519.88;;;22.77;65.63
13241;BME280;6687;47.790;7.322;2023-07-29T05:54:25;98529.19;;;22.84;64.99
13241;BME280;6687;47.790;7.322;2023-07-29T05:56:51;98525.31;;;22.90;65.05
13241;BME280;6687;47.790;7.322;2023-07-29T05:59:19;98523.97;;;22.98;64.64
13241;BME280;6687;47.790;7.322;2023-07-29T06:01:46;98534.28;;;22.87;65.73
13241;BME280;6687;47.790;7.322;2023-07-29T06:04:13;98550.22;;;23.01;64.20
13241;BME280;6687;47.790;7.322;2023-07-29T06:06:39;98553.78;;;23.02;64.36
13241;BME280;6687;47.790;7.322;2023-07-29T06:09:06;98543.78;;;23.07;64.26
13241;BME280;6687;47.790;7.322;2023-07-29T06:11:33;98550.44;;;23.14;63.87
13241;BME280;6687;47.790;7.322;2023-07-29T06:13:59;98566.59;;;22.92;69.13
13241;BME280;6687;47.790;7.322;2023-07-29T06:16:27;98570.00;;;22.78;73.84
13241;BME280;6687;47.790;7.322;2023-07-29T06:18:54;98564.72;;;22.94;69.97
13241;BME280;6687;47.790;7.322;2023-07-29T06:21:21;98555.31;;;22.57;77.25
13241;BME280;6687;47.790;7.322;2023-07-29T06:23:48;98549.03;;;22.91;66.90
13241;BME280;6687;47.790;7.322;2023-07-29T06:26:14;98544.78;;;22.89;66.81
13241;BME280;6687;47.790;7.322;2023-07-29T06:28:41;98541.09;;;22.91;66.17
13241;BME280;6687;47.790;7.322;2023-07-29T06:31:08;98549.44;;;22.83;67.56
13241;BME280;6687;47.790;7.322;2023-07-29T06:33:36;98556.44;;;22.84;66.89
13241;BME280;6687;47.790;7.322;2023-07-29T06:36:03;98551.94;;;22.87;66.56
13241;BME280;6687;47.790;7.322;2023-07-29T06:38:30;98547.75;;;22.98;66.60
13241;BME280;6687;47.790;7.322;2023-07-29T06:40:57;98544.59;;;22.92;67.36
13241;BME280;6687;47.790;7.322;2023-07-29T06:43:24;98536.16;;;23.01;66.83
13241;BME280;6687;47.790;7.322;2023-07-29T06:45:51;98534.56;;;23.14;65.69
13241;BME280;6687;47.790;7.322;2023-07-29T06:48:18;98530.75;;;23.20;66.52
13241;BME280;6687;47.790;7.322;2023-07-29T06:50:46;98529.34;;;23.29;66.40
13241;BME280;6687;47.790;7.322;2023-07-29T06:53:13;98537.69;;;23.37;65.99
13241;BME280;6687;47.790;7.322;2023-07-29T06:55:40;98534.28;;;23.35;66.11
13241;BME280;6687;47.790;7.322;2023-07-29T06:58:07;98540.53;;;23.34;66.79
13241;BME280;6687;47.790;7.322;2023-07-29T07:00:33;98537.25;;;23.45;66.23
13241;BME280;6687;47.790;7.322;2023-07-29T07:03:00;98534.16;;;23.52;66.60
13241;BME280;6687;47.790;7.322;2023-07-29T07:05:27;98524.91;;;23.59;65.66
13241;BME280;6687;47.790;7.322;2023-07-29T07:07:55;98531.41;;;23.70;65.48
13241;BME280;6687;47.790;7.322;2023-07-29T07:10:22;98535.63;;;23.88;65.15
13241;BME280;6687;47.790;7.322;2023-07-29T07:12:48;98529.78;;;23.97;64.93
13241;BME280;6687;47.790;7.322;2023-07-29T07:15:15;98523.38;;;24.01;64.75
13241;BME280;6687;47.790;7.322;2023-07-29T07:17:42;98514.31;;;24.20;63.75
13241;BME280;6687;47.790;7.322;2023-07-29T07:20:09;98512.78;;;24.30;62.75
13241;BME280;6687;47.790;7.322;2023-07-29T07:22:36;98519.13;;;24.42;65.37
13241;BME280;6687;47.790;7.322;2023-07-29T07:25:06;98530.38;;;24.46;62.84
13241;BME280;6687;47.790;7.322;2023-07-29T07:27:33;98537.56;;;24.72;63.44
13241;BME280;6687;47.790;7.322;2023-07-29T07:30:00;98525.78;;;24.91;62.58
13241;BME280;6687;47.790;7.322;2023-07-29T07:32:27;98524.31;;;25.14;62.78
13241;BME280;6687;47.790;7.322;2023-07-29T07:34:54;98534.47;;;25.22;61.24
13241;BME280;6687;47.790;7.322;2023-07-29T07:37:20;98529.91;;;25.51;60.89
13241;BME280;6687;47.790;7.322;2023-07-29T07:39:47;98532.81;;;25.60;60.27
13241;BME280;6687;47.790;7.322;2023-07-29T07:42:15;98536.19;;;25.63;60.97
13241;BME280;6687;47.790;7.322;2023-07-29T07:44:42;98540.94;;;25.57;60.08
13241;BME280;6687;47.790;7.322;2023-07-29T07:47:09;98540.78;;;25.86;60.53
13241;BME280;6687;47.790;7.322;2023-07-29T07:49:35;98539.47;;;26.19;60.17
13241;BME280;6687;47.790;7.322;2023-07-29T07:52:02;98533.19;;;26.07;58.14
13241;BME280;6687;47.790;7.322;2023-07-29T07:54:29;98529.28;;;26.38;58.64
13241;BME280;6687;47.790;7.322;2023-07-29T07:56:55;98533.63;;;26.27;57.91
13241;BME280;6687;47.790;7.322;2023-07-29T07:59:23;98543.50;;;26.37;58.19
13241;BME280;6687;47.790;7.322;2023-07-29T08:01:50;98541.25;;;26.70;57.95
13241;BME280;6687;47.790;7.322;2023-07-29T08:04:17;98538.59;;;26.57;57.46
13241;BME280;6687;47.790;7.322;2023-07-29T08:06:44;98534.47;;;26.53;58.04
13241;BME280;6687;47.790;7.322;2023-07-29T08:09:11;98538.06;;;26.77;57.00
13241;BME280;6687;47.790;7.322;2023-07-29T08:11:37;98537.00;;;26.80;55.22
13241;BME280;6687;47.790;7.322;2023-07-29T08:14:04;98546.50;;;26.95;55.51
13241;BME280;6687;47.790;7.322;2023-07-29T08:16:32;98553.88;;;27.29;55.31
13241;BME280;6687;47.790;7.322;2023-07-29T08:18:59;98552.28;;;27.50;54.64
13241;BME280;6687;47.790;7.322;2023-07-29T08:21:26;98550.81;;;27.46;54.68
13241;BME280;6687;47.790;7.322;2023-07-29T08:23:53;98546.31;;;27.23;55.52
13241;BME280;6687;47.790;7.322;2023-07-29T08:26:20;98550.59;;;27.49;54.42
13241;BME280;6687;47.790;7.322;2023-07-29T08:28:48;98543.91;;;27.68;53.56
13241;BME280;6687;47.790;7.322;2023-07-29T08:31:15;98550.72;;;27.83;53.04
13241;BME280;6687;47.790;7.322;2023-07-29T08:33:43;98539.44;;;28.04;52.43
13241;BME280;6687;47.790;7.322;2023-07-29T08:36:09;98551.53;;;28.08;50.97
13241;BME280;6687;47.790;7.322;2023-07-29T08:38:36;98547.16;;;27.95;52.13
13241;BME280;6687;47.790;7.322;2023-07-29T08:41:08;98554.44;;;28.05;52.33
13241;BME280;6687;47.790;7.322;2023-07-29T08:43:39;98556.41;;;28.36;51.32
13241;BME280;6687;47.790;7.322;2023-07-29T08:46:07;98552.66;;;28.39;50.61
13241;BME280;6687;47.790;7.322;2023-07-29T08:48:40;98552.81;;;27.91;52.32
13241;BME280;6687;47.790;7.322;2023-07-29T08:51:10;98557.72;;;28.08;51.79
13241;BME280;6687;47.790;7.322;2023-07-29T08:53:37;98541.88;;;28.18;52.38
13241;BME280;6687;47.790;7.322;2023-07-29T08:56:05;98551.63;;;28.75;50.86
13241;BME280;6687;47.790;7.322;2023-07-29T08:58:32;98558.84;;;28.28;49.45
13241;BME280;6687;47.790;7.322;2023-07-29T09:00:59;98554.97;;;28.32;49.54
13241;BME280;6687;47.790;7.322;2023-07-29T09:03:26;98560.19;;;28.45;49.36
13241;BME280;6687;47.790;7.322;2023-07-29T09:05:55;98556.38;;;28.03;49.87
13241;BME280;6687;47.790;7.322;2023-07-29T09:08:24;98562.81;;;27.76;50.96
13241;BME280;6687;47.790;7.322;2023-07-29T09:10:51;98561.69;;;27.91;50.81
13241;BME280;6687;47.790;7.322;2023-07-29T09:13:18;98562.56;;;28.14;50.41
13241;BME280;6687;47.790;7.322;2023-07-29T09:15:45;98557.13;;;28.16;50.21
13241;BME280;6687;47.790;7.322;2023-07-29T09:18:15;98564.19;;;27.57;51.52
13241;BME280;6687;47.790;7.322;2023-07-29T09:20:42;98559.53;;;28.19;50.81
13241;BME280;6687;47.790;7.322;2023-07-29T09:23:10;98553.16;;;28.22;51.04
13241;BME280;6687;47.790;7.322;2023-07-29T09:25:39;98552.75;;;28.04;51.13
13241;BME280;6687;47.790;7.322;2023-07-29T09:28:10;98552.75;;;28.15;50.64
13241;BME280;6687;47.790;7.322;2023-07-29T09:30:38;98538.75;;;28.35;50.23
13241;BME280;6687;47.790;7.322;2023-07-29T09:33:05;98542.16;;;28.71;49.28
13241;BME280;6687;47.790;7.322;2023-07-29T09:35:33;98541.91;;;28.97;48.58
13241;BME280;6687;47.790;7.322;2023-07-29T09:38:00;98534.41;;;28.80;49.57
13241;BME280;6687;47.790;7.322;2023-07-29T09:40:27;98542.50;;;28.67;48.39
13241;BME280;6687;47.790;7.322;2023-07-29T09:43:02;98542.84;;;28.96;47.43
13241;BME280;6687;47.790;7.322;2023-07-29T09:45:29;98552.81;;;28.83;46.49
13241;BME280;6687;47.790;7.322;2023-07-29T09:47:57;98547.50;;;29.38;47.09
13241;BME280;6687;47.790;7.322;2023-07-29T09:50:25;98539.72;;;29.13;47.15
13241;BME280;6687;47.790;7.322;2023-07-29T09:52:53;98545.13;;;29.55;46.22
13241;BME280;6687;47.790;7.322;2023-07-29T09:55:22;98551.94;;;29.48;46.54
13241;BME280;6687;47.790;7.322;2023-07-29T09:57:53;98556.84;;;29.43;46.58
13241;BME280;6687;47.790;7.322;2023-07-29T10:00:21;98548.34;;;29.38;44.58
13241;BME280;6687;47.790;7.322;2023-07-29T10:02:48;98548.84;;;29.64;45.85
13241;BME280;6687;47.790;7.322;2023-07-29T10:05:16;98541.66;;;29.44;44.23
13241;BME280;6687;47.790;7.322;2023-07-29T10:07:43;98548.53;;;30.11;43.63
13241;BME280;6687;47.790;7.322;2023-07-29T10:10:10;98539.59;;;30.43;43.24
13241;BME280;6687;47.790;7.322;2023-07-29T10:12:39;98543.78;;;30.66;43.04
13241;BME280;6687;47.790;7.322;2023-07-29T10:15:08;98538.50;;;30.55;42.13
13241;BME280;6687;47.790;7.322;2023-07-29T10:17:37;98534.63;;;30.17;41.76
13241;BME280;6687;47.790;7.322;2023-07-29T10:20:06;98539.31;;;30.46;41.22
13241;BME280;6687;47.790;7.322;2023-07-29T10:22:36;98539.44;;;30.23;41.28
13241;BME280;6687;47.790;7.322;2023-07-29T10:25:04;98538.41;;;30.36;41.02
13241;BME280;6687;47.790;7.322;2023-07-29T10:27:37;98544.84;;;30.54;40.95
13241;BME280;6687;47.790;7.322;2023-07-29T10:30:07;98535.41;;;30.60;42.17
13241;BME280;6687;47.790;7.322;2023-07-29T10:32:36;98546.13;;;30.90;41.74
13241;BME280;6687;47.790;7.322;2023-07-29T10:35:05;98536.97;;;30.93;40.82
13241;BME280;6687;47.790;7.322;2023-07-29T10:37:33;98542.94;;;31.16;41.57
13241;BME280;6687;47.790;7.322;2023-07-29T10:39:59;98542.41;;;31.42;40.39
13241;BME280;6687;47.790;7.322;2023-07-29T10:42:26;98541.72;;;31.79;39.11
13241;BME280;6687;47.790;7.322;2023-07-29T10:44:53;98534.63;;;31.97;37.89
13241;BME280;6687;47.790;7.322;2023-07-29T10:47:24;98536.78;;;31.94;37.33
13241;BME280;6687;47.790;7.322;2023-07-29T10:49:55;98534.81;;;32.05;37.36
13241;BME280;6687;47.790;7.322;2023-07-29T10:52:30;98525.38;;;32.39;38.34
13241;BME280;6687;47.790;7.322;2023-07-29T10:54:57;98530.66;;;32.30;38.67
13241;BME280;6687;47.790;7.322;2023-07-29T10:57:31;98533.06;;;32.71;37.24
13241;BME280;6687;47.790;7.322;2023-07-29T10:59:59;98534.09;;;32.60;39.18
13241;BME280;6687;47.790;7.322;2023-07-29T11:02:29;98532.09;;;32.53;38.41
13241;BME280;6687;47.790;7.322;2023-07-29T11:04:58;98538.31;;;32.63;36.55
13241;BME280;6687;47.790;7.322;2023-07-29T11:07:26;98529.28;;;32.54;36.47
13241;BME280;6687;47.790;7.322;2023-07-29T11:09:56;98522.66;;;32.11;35.09
13241;BME280;6687;47.790;7.322;2023-07-29T11:12:40;98531.06;;;32.36;34.72
13241;BME280;6687;47.790;7.322;2023-07-29T11:15:23;98520.81;;;32.49;35.80
13241;BME280;6687;47.790;7.322;2023-07-29T11:17:52;98524.75;;;32.64;36.99
13241;BME280;6687;47.790;7.322;2023-07-29T11:20:22;98524.16;;;32.70;37.10
13241;BME280;6687;47.790;7.322;2023-07-29T11:22:49;98527.75;;;32.04;36.15
13241;BME280;6687;47.790;7.322;2023-07-29T11:25:17;98532.47;;;32.40;34.48
13241;BME280;6687;47.790;7.322;2023-07-29T11:27:44;98534.78;;;32.15;35.58
13241;BME280;6687;47.790;7.322;2023-07-29T11:30:13;98523.22;;;32.52;35.21
13241;BME280;6687;47.790;7.322;2023-07-29T11:32:41;98516.19;;;31.94;35.52
13241;BME280;6687;47.790;7.322;2023-07-29T11:35:09;98523.84;;;31.69;37.10
13241;BME280;6687;47.790;7.322;2023-07-29T11:37:38;98514.34;;;32.14;35.53
13241;BME280;6687;47.790;7.322;2023-07-29T11:40:06;98500.38;;;32.10;35.55
13241;BME280;6687;47.790;7.322;2023-07-29T11:42:35;98512.47;;;32.15;36.91
13241;BME280;6687;47.790;7.322;2023-07-29T11:45:02;98510.09;;;32.49;36.84
13241;BME280;6687;47.790;7.322;2023-07-29T11:47:31;98502.69;;;31.76;37.09
13241;BME280;6687;47.790;7.322;2023-07-29T11:50:01;98511.72;;;31.56;37.36
13241;BME280;6687;47.790;7.322;2023-07-29T11:52:29;98505.31;;;32.43;37.20
13241;BME280;6687;47.790;7.322;2023-07-29T11:55:00;98502.91;;;32.12;37.19
13241;BME280;6687;47.790;7.322;2023-07-29T11:57:27;98505.09;;;31.60;37.89
13241;BME280;6687;47.790;7.322;2023-07-29T11:59:54;98501.72;;;32.24;36.98
13241;BME280;6687;47.790;7.322;2023-07-29T12:02:21;98503.38;;;31.59;37.68
13241;BME280;6687;47.790;7.322;2023-07-29T12:04:49;98511.44;;;31.59;38.05
13241;BME280;6687;47.790;7.322;2023-07-29T12:07:17;98502.09;;;31.82;37.97
13241;BME280;6687;47.790;7.322;2023-07-29T12:09:45;98510.56;;;31.87;38.26
13241;BME280;6687;47.790;7.322;2023-07-29T12:12:14;98525.47;;;31.41;38.97
13241;BME280;6687;47.790;7.322;2023-07-29T12:14:44;98519.06;;;31.54;38.92
13241;BME280;6687;47.790;7.322;2023-07-29T12:17:11;98524.94;;;31.47;38.42
13241;BME280;6687;47.790;7.322;2023-07-29T12:19:38;98525.31;;;31.13;39.19
13241;BME280;6687;47.790;7.322;2023-07-29T12:22:06;98518.06;;;30.85;39.91
13241;BME280;6687;47.790;7.322;2023-07-29T12:24:36;98518.53;;;30.59;40.64
13241;BME280;6687;47.790;7.322;2023-07-29T12:27:03;98514.66;;;30.83;40.10
13241;BME280;6687;47.790;7.322;2023-07-29T12:29:31;98518.13;;;30.95;40.28
13241;BME280;6687;47.790;7.322;2023-07-29T12:32:00;98505.50;;;31.55;39.16
13241;BME280;6687;47.790;7.322;2023-07-29T12:34:28;98511.44;;;31.49;39.30
13241;BME280;6687;47.790;7.322;2023-07-29T12:36:56;98502.94;;;31.73;39.30
13241;BME280;6687;47.790;7.322;2023-07-29T12:39:25;98516.03;;;31.27;39.59
13241;BME280;6687;47.790;7.322;2023-07-29T12:41:54;98523.22;;;31.27;39.75
13241;BME280;6687;47.790;7.322;2023-07-29T12:44:22;98526.66;;;31.48;39.64
13241;BME280;6687;47.790;7.322;2023-07-29T12:46:51;98533.47;;;31.02;40.05
13241;BME280;6687;47.790;7.322;2023-07-29T12:49:17;98531.38;;;31.25;40.09
13241;BME280;6687;47.790;7.322;2023-07-29T12:51:45;98521.03;;;31.51;40.32
13241;BME280;6687;47.790;7.322;2023-07-29T12:54:12;98510.56;;;31.78;39.52
13241;BME280;6687;47.790;7.322;2023-07-29T12:56:38;98521.81;;;32.10;39.11
13241;BME280;6687;47.790;7.322;2023-07-29T12:59:05;98523.44;;;32.31;38.87
13241;BME280;6687;47.790;7.322;2023-07-29T13:01:32;98515.63;;;31.90;39.64
13241;BME280;6687;47.790;7.322;2023-07-29T13:04:00;98531.38;;;32.23;39.52
13241;BME280;6687;47.790;7.322;2023-07-29T13:06:27;98527.50;;;31.68;39.84
13241;BME280;6687;47.790;7.322;2023-07-29T13:08:54;98536.34;;;31.88;38.64
13241;BME280;6687;47.790;7.322;2023-07-29T13:11:20;98529.25;;;31.09;39.42
13241;BME280;6687;47.790;7.322;2023-07-29T13:13:47;98533.66;;;31.30;39.37
13241;BME280;6687;47.790;7.322;2023-07-29T13:16:14;98539.56;;;31.33;39.03
13241;BME280;6687;47.790;7.322;2023-07-29T13:18:40;98545.53;;;31.57;39.24
13241;BME280;6687;47.790;7.322;2023-07-29T13:21:08;98547.19;;;31.38;39.92
13241;BME280;6687;47.790;7.322;2023-07-29T13:23:35;98542.72;;;31.58;38.99
13241;BME280;6687;47.790;7.322;2023-07-29T13:26:02;98545.38;;;31.39;40.36
13241;BME280;6687;47.790;7.322;2023-07-29T13:28:28;98539.28;;;31.17;39.18
13241;BME280;6687;47.790;7.322;2023-07-29T13:30:55;98543.22;;;31.13;40.59
13241;BME280;6687;47.790;7.322;2023-07-29T13:33:22;98545.22;;;31.21;39.16
13241;BME280;6687;47.790;7.322;2023-07-29T13:35:49;98543.00;;;31.45;39.95
13241;BME280;6687;47.790;7.322;2023-07-29T13:38:17;98534.94;;;30.85;38.66
13241;BME280;6687;47.790;7.322;2023-07-29T13:40:45;98541.97;;;31.27;39.63
13241;BME280;6687;47.790;7.322;2023-07-29T13:43:12;98556.91;;;31.39;38.03
13241;BME280;6687;47.790;7.322;2023-07-29T13:45:38;98538.91;;;31.51;38.94
13241;BME280;6687;47.790;7.322;2023-07-29T13:48:05;98557.78;;;31.40;38.95
13241;BME280;6687;47.790;7.322;2023-07-29T13:50:32;98555.84;;;31.51;39.20
13241;BME280;6687;47.790;7.322;2023-07-29T13:52:58;98551.28;;;31.32;39.50
13241;BME280;6687;47.790;7.322;2023-07-29T13:55:26;98554.28;;;31.78;39.00
13241;BME280;6687;47.790;7.322;2023-07-29T13:57:53;98557.63;;;31.41;38.57
13241;BME280;6687;47.790;7.322;2023-07-29T14:00:20;98551.13;;;30.84;39.36
13241;BME280;6687;47.790;7.322;2023-07-29T14:02:47;98554.56;;;31.46;38.76
13241;BME280;6687;47.790;7.322;2023-07-29T14:05:14;98547.13;;;30.99;39.24
13241;BME280;6687;47.790;7.322;2023-07-29T14:07:40;98552.25;;;31.22;37.67
13241;BME280;6687;47.790;7.322;2023-07-29T14:10:07;98553.34;;;31.09;36.71
13241;BME280;6687;47.790;7.322;2023-07-29T14:12:35;98562.09;;;31.11;37.75
13241;BME280;6687;47.790;7.322;2023-07-29T14:15:03;98556.38;;;31.45;38.40
13241;BME280;6687;47.790;7.322;2023-07-29T14:17:31;98545.88;;;30.63;37.22
13241;BME280;6687;47.790;7.322;2023-07-29T14:19:58;98555.44;;;30.65;39.07
13241;BME280;6687;47.790;7.322;2023-07-29T14:22:24;98566.47;;;30.72;38.72
13241;BME280;6687;47.790;7.322;2023-07-29T14:24:51;98572.41;;;30.85;39.46
13241;BME280;6687;47.790;7.322;2023-07-29T14:27:18;98572.56;;;30.53;40.31
13241;BME280;6687;47.790;7.322;2023-07-29T14:29:46;98569.97;;;30.42;40.41
13241;BME280;6687;47.790;7.322;2023-07-29T14:32:12;98585.69;;;30.56;40.98
13241;BME280;6687;47.790;7.322;2023-07-29T14:34:39;98586.91;;;30.52;41.08
13241;BME280;6687;47.790;7.322;2023-07-29T14:37:06;98587.25;;;30.17;42.24
13241;BME280;6687;47.790;7.322;2023-07-29T14:39:32;98584.72;;;29.50;44.02
13241;BME280;6687;47.790;7.322;2023-07-29T14:41:59;98578.28;;;30.39;42.19
13241;BME280;6687;47.790;7.322;2023-07-29T14:44:26;98579.16;;;29.42;44.64
13241;BME280;6687;47.790;7.322;2023-07-29T14:46:54;98585.81;;;30.12;43.15
13241;BME280;6687;47.790;7.322;2023-07-29T14:49:21;98582.94;;;29.83;43.97
13241;BME280;6687;47.790;7.322;2023-07-29T14:51:48;98591.63;;;29.97;43.59
13241;BME280;6687;47.790;7.322;2023-07-29T14:54:15;98589.28;;;30.24;43.24
13241;BME280;6687;47.790;7.322;2023-07-29T14:56:41;98581.56;;;30.10;43.16
13241;BME280;6687;47.790;7.322;2023-07-29T14:59:08;98589.66;;;29.99;44.18
13241;BME280;6687;47.790;7.322;2023-07-29T15:01:35;98580.59;;;30.11;43.90
13241;BME280;6687;47.790;7.322;2023-07-29T15:04:03;98588.06;;;29.75;44.54
13241;BME280;6687;47.790;7.322;2023-07-29T15:06:30;98573.03;;;29.63;45.68
13241;BME280;6687;47.790;7.322;2023-07-29T15:08:57;98576.16;;;29.79;45.37
13241;BME280;6687;47.790;7.322;2023-07-29T15:11:24;98574.06;;;30.04;44.88
13241;BME280;6687;47.790;7.322;2023-07-29T15:13:50;98574.06;;;30.04;44.95
13241;BME280;6687;47.790;7.322;2023-07-29T15:16:17;98574.16;;;29.92;44.98
13241;BME280;6687;47.790;7.322;2023-07-29T15:18:44;98565.66;;;29.87;45.72
13241;BME280;6687;47.790;7.322;2023-07-29T15:21:12;98561.38;;;30.38;44.06
13241;BME280;6687;47.790;7.322;2023-07-29T15:23:38;98557.13;;;30.14;45.51
13241;BME280;6687;47.790;7.322;2023-07-29T15:26:05;98551.84;;;30.03;45.94
13241;BME280;6687;47.790;7.322;2023-07-29T15:28:32;98553.94;;;30.21;45.29
13241;BME280;6687;47.790;7.322;2023-07-29T15:30:59;98553.81;;;30.22;45.03
13241;BME280;6687;47.790;7.322;2023-07-29T15:33:25;98542.97;;;30.24;44.67
13241;BME280;6687;47.790;7.322;2023-07-29T15:35:52;98557.53;;;30.31;44.68
13241;BME280;6687;47.790;7.322;2023-07-29T15:38:20;98563.78;;;30.20;46.36
13241;BME280;6687;47.790;7.322;2023-07-29T15:40:47;98571.66;;;30.43;45.89
13241;BME280;6687;47.790;7.322;2023-07-29T15:43:16;98570.91;;;30.62;44.63
13241;BME280;6687;47.790;7.322;2023-07-29T15:45:43;98563.63;;;30.73;43.87
13241;BME280;6687;47.790;7.322;2023-07-29T15:48:10;98571.78;;;30.62;44.24
13241;BME280;6687;47.790;7.322;2023-07-29T15:50:37;98565.41;;;30.63;44.63
13241;BME280;6687;47.790;7.322;2023-07-29T15:53:04;98566.69;;;30.59;44.37
13241;BME280;6687;47.790;7.322;2023-07-29T15:55:32;98559.09;;;30.64;45.10
13241;BME280;6687;47.790;7.322;2023-07-29T15:57:59;98560.84;;;30.44;44.83
13241;BME280;6687;47.790;7.322;2023-07-29T16:00:26;98557.28;;;30.65;44.12
13241;BME280;6687;47.790;7.322;2023-07-29T16:02:54;98555.25;;;30.26;45.06
13241;BME280;6687;47.790;7.322;2023-07-29T16:05:20;98553.09;;;30.41;44.50
13241;BME280;6687;47.790;7.322;2023-07-29T16:07:47;98558.63;;;30.28;45.18
13241;BME280;6687;47.790;7.322;2023-07-29T16:10:14;98550.53;;;29.98;46.39
13241;BME280;6687;47.790;7.322;2023-07-29T16:12:42;98550.53;;;30.40;44.31
13241;BME280;6687;47.790;7.322;2023-07-29T16:15:10;98558.13;;;29.92;46.22
13241;BME280;6687;47.790;7.322;2023-07-29T16:17:37;98549.81;;;29.96;45.67
13241;BME280;6687;47.790;7.322;2023-07-29T16:20:04;98542.34;;;29.89;45.99
13241;BME280;6687;47.790;7.322;2023-07-29T16:22:31;98542.34;;;29.89;46.19
13241;BME280;6687;47.790;7.322;2023-07-29T16:25:00;98544.69;;;30.04;45.38
13241;BME280;6687;47.790;7.322;2023-07-29T16:27:27;98539.72;;;29.78;46.01
13241;BME280;6687;47.790;7.322;2023-07-29T16:29:58;98544.63;;;29.73;45.99
13241;BME280;6687;47.790;7.322;2023-07-29T16:32:25;98548.84;;;29.64;45.92
13241;BME280;6687;47.790;7.322;2023-07-29T16:34:52;98546.16;;;29.43;46.17
13241;BME280;6687;47.790;7.322;2023-07-29T16:37:19;98551.59;;;29.53;46.40
13241;BME280;6687;47.790;7.322;2023-07-29T16:39:46;98544.38;;;29.32;46.83
13241;BME280;6687;47.790;7.322;2023-07-29T16:42:13;98550.22;;;29.26;46.90
13241;BME280;6687;47.790;7.322;2023-07-29T16:44:39;98541.66;;;29.11;47.88
13241;BME280;6687;47.790;7.322;2023-07-29T16:47:08;98547.63;;;28.81;48.12
13241;BME280;6687;47.790;7.322;2023-07-29T16:49:35;98536.41;;;28.99;47.67
13241;BME280;6687;47.790;7.322;2023-07-29T16:52:03;98545.06;;;28.91;47.87
13241;BME280;6687;47.790;7.322;2023-07-29T16:54:30;98544.50;;;28.07;50.13
13241;BME280;6687;47.790;7.322;2023-07-29T16:56:56;98542.88;;;28.85;47.92
13241;BME280;6687;47.790;7.322;2023-07-29T16:59:23;98540.72;;;28.67;48.40
13241;BME280;6687;47.790;7.322;2023-07-29T17:01:50;98547.13;;;28.76;47.90
13241;BME280;6687;47.790;7.322;2023-07-29T17:04:18;98549.22;;;28.61;48.15
13241;BME280;6687;47.790;7.322;2023-07-29T17:06:44;98557.41;;;28.47;49.76
13241;BME280;6687;47.790;7.322;2023-07-29T17:09:11;98558.84;;;28.28;49.60
13241;BME280;6687;47.790;7.322;2023-07-29T17:11:38;98564.00;;;27.96;50.83
13241;BME280;6687;47.790;7.322;2023-07-29T17:14:05;98573.16;;;28.27;49.68
13241;BME280;6687;47.790;7.322;2023-07-29T17:16:31;98556.16;;;28.17;49.92
13241;BME280;6687;47.790;7.322;2023-07-29T17:18:58;98558.09;;;28.15;50.21
13241;BME280;6687;47.790;7.322;2023-07-29T17:21:28;98541.50;;;28.11;50.12
13241;BME280;6687;47.790;7.322;2023-07-29T17:23:54;98541.84;;;27.95;50.23
13241;BME280;6687;47.790;7.322;2023-07-29T17:26:21;98551.06;;;27.78;50.93
13241;BME280;6687;47.790;7.322;2023-07-29T17:28:48;98541.09;;;27.34;53.44
13241;BME280;6687;47.790;7.322;2023-07-29T17:31:14;98545.50;;;27.46;52.18
13241;BME280;6687;47.790;7.322;2023-07-29T17:33:41;98545.34;;;27.36;52.84
13241;BME280;6687;47.790;7.322;2023-07-29T17:36:08;98547.44;;;27.07;53.95
13241;BME280;6687;47.790;7.322;2023-07-29T17:38:36;98544.00;;;27.18;53.54
13241;BME280;6687;47.790;7.322;2023-07-29T17:41:05;98550.34;;;27.04;53.83
13241;BME280;6687;47.790;7.322;2023-07-29T17:43:32;98553.34;;;26.87;55.65
13241;BME280;6687;47.790;7.322;2023-07-29T17:45:59;98546.56;;;26.83;54.54
13241;BME280;6687;47.790;7.322;2023-07-29T17:48:26;98557.19;;;26.70;55.19
13241;BME280;6687;47.790;7.322;2023-07-29T17:50:52;98552.56;;;26.61;56.20
13241;BME280;6687;47.790;7.322;2023-07-29T17:53:19;98557.75;;;26.11;65.43
13241;BME280;6687;47.790;7.322;2023-07-29T17:55:47;98549.50;;;25.88;69.26
13241;BME280;6687;47.790;7.322;2023-07-29T17:58:14;98542.34;;;26.03;70.37
13241;BME280;6687;47.790;7.322;2023-07-29T18:00:41;98544.88;;;25.92;69.91
13241;BME280;6687;47.790;7.322;2023-07-29T18:03:07;98541.72;;;26.12;64.57
13241;BME280;6687;47.790;7.322;2023-07-29T18:05:34;98545.22;;;26.13;62.73
13241;BME280;6687;47.790;7.322;2023-07-29T18:08:01;98543.09;;;26.05;64.40
13241;BME280;6687;47.790;7.322;2023-07-29T18:10:28;98539.34;;;26.08;61.26
13241;BME280;6687;47.790;7.322;2023-07-29T18:12:57;98542.97;;;26.07;60.47
13241;BME280;6687;47.790;7.322;2023-07-29T18:15:26;98548.50;;;26.04;63.11
13241;BME280;6687;47.790;7.322;2023-07-29T18:17:53;98543.19;;;26.04;65.22
13241;BME280;6687;47.790;7.322;2023-07-29T18:20:19;98542.25;;;26.05;67.17
13241;BME280;6687;47.790;7.322;2023-07-29T18:22:46;98541.69;;;25.99;67.77
13241;BME280;6687;47.790;7.322;2023-07-29T18:25:14;98543.25;;;25.89;72.09
13241;BME280;6687;47.790;7.322;2023-07-29T18:27:40;98549.16;;;25.40;76.18
13241;BME280;6687;47.790;7.322;2023-07-29T18:30:09;98552.47;;;25.44;76.76
13241;BME280;6687;47.790;7.322;2023-07-29T18:32:38;98550.97;;;25.67;74.69
13241;BME280;6687;47.790;7.322;2023-07-29T18:35:06;98549.50;;;25.48;75.29